Time;durP1;ratioP1;P1;durP2;ratioP2;P2;SDS_P1;SDS_P2;PMS_P1;PMS_P2;Temp;Humidity;BMP_temperature;BMP_pressure;BME280_temperature;BME280_humidity;BME280_pressure;Samples;Min_cycle;Max_cycle;Signal;HPM_P1;HPM_P2
2022/05/14 00:01:19;;;;;;;4.18;1.40;;;13.30;73.80;;;;;;2074528;28;20034;-90
2022/05/14 00:02:38;;;;;;;2.72;1.30;;;13.30;74.50;;;;;;2066368;28;20050;-90
2022/05/14 00:03:58;;;;;;;3.10;1.48;;;13.30;73.90;;;;;;2071979;28;20417;-91
2022/05/14 00:05:20;;;;;;;5.15;1.30;;;13.30;73.90;;;;;;2065536;28;20129;-91
2022/05/14 00:06:39;;;;;;;3.20;1.15;;;13.30;74.00;;;;;;2065053;28;20038;-90
2022/05/14 00:07:58;;;;;;;4.18;1.15;;;13.30;74.10;;;;;;2074249;28;20041;-90
2022/05/14 00:09:17;;;;;;;4.32;1.55;;;13.30;74.10;;;;;;2075213;28;20113;-91
2022/05/14 00:13:03;;;;;;;3.10;1.20;;;13.30;74.20;;;;;;2058546;28;20047;-90
2022/05/14 00:13:55;;;;;;;3.22;1.45;;;13.30;74.40;;;;;;2073214;28;20046;-90
2022/05/14 00:15:14;;;;;;;3.90;1.35;;;13.20;75.00;;;;;;2068543;28;20062;-90
2022/05/14 00:16:35;;;;;;;4.50;1.58;;;13.20;74.50;;;;;;2057441;28;20055;-90
2022/05/14 00:17:54;;;;;;;3.80;1.30;;;13.20;74.50;;;;;;2068266;28;20041;-90
2022/05/14 00:19:15;;;;;;;5.10;1.98;;;13.20;74.60;;;;;;2074405;28;20042;-89
2022/05/14 00:20:36;;;;;;;4.32;1.33;;;13.20;74.70;;;;;;2067205;28;20553;-90
2022/05/14 00:21:55;;;;;;;3.50;1.33;;;13.20;74.90;;;;;;2061019;28;20337;-90
2022/05/14 00:23:14;;;;;;;4.38;1.50;;;13.10;74.90;;;;;;2055218;28;20046;-90
2022/05/14 00:24:33;;;;;;;3.70;1.55;;;13.10;75.00;;;;;;2065848;28;20062;-90
2022/05/14 00:25:53;;;;;;;5.03;1.42;;;13.10;75.00;;;;;;2055284;28;20047;-90
2022/05/14 00:27:12;;;;;;;3.58;1.48;;;13.10;75.20;;;;;;2062599;28;20121;-90
2022/05/14 00:28:32;;;;;;;2.67;1.30;;;13.10;75.30;;;;;;2054976;28;20047;-90
2022/05/14 00:29:51;;;;;;;4.78;1.40;;;13.10;75.40;;;;;;2062042;28;20532;-90
2022/05/14 00:31:10;;;;;;;4.75;1.58;;;13.00;75.40;;;;;;2063120;28;20055;-90
2022/05/14 00:32:30;;;;;;;3.50;1.50;;;13.10;75.50;;;;;;2062596;28;20050;-90
2022/05/14 00:33:49;;;;;;;3.20;1.40;;;13.00;75.50;;;;;;2058462;28;20447;-90
2022/05/14 00:35:10;;;;;;;3.90;1.52;;;13.00;75.60;;;;;;2056347;28;20043;-90
2022/05/14 00:36:29;;;;;;;;;;;13.00;75.60;;;;;;2057809;28;20043;-91
2022/05/14 00:37:49;;;;;;;2.75;1.20;;;13.00;75.50;;;;;;2061709;28;20356;-91
2022/05/14 00:39:08;;;;;;;6.05;1.58;;;13.00;75.40;;;;;;2070337;28;20037;-91
2022/05/14 00:40:36;;;;;;;5.72;2.00;;;13.00;75.50;;;;;;2061491;28;20524;-90
2022/05/14 00:41:55;;;;;;;6.10;2.00;;;13.00;75.60;;;;;;2071030;28;20053;-90
2022/05/14 00:43:15;;;;;;;5.32;1.98;;;13.00;75.70;;;;;;2058352;28;20038;-90
2022/05/14 00:44:35;;;;;;;;;;;13.00;75.80;;;;;;2067858;28;20049;-90
2022/05/14 00:46:17;;;;;;;4.60;1.60;;;12.90;75.70;;;;;;2060444;28;19914;-89
2022/05/14 00:47:39;;;;;;;4.68;1.75;;;12.90;75.70;;;;;;2072412;28;20030;-90
2022/05/14 00:48:59;;;;;;;3.35;1.55;;;12.90;75.80;;;;;;2070288;28;20046;-89
2022/05/14 00:50:21;;;;;;;5.47;1.70;;;12.80;75.90;;;;;;2073252;28;20089;-88
2022/05/14 00:51:44;;;;;;;4.38;1.80;;;12.80;76.00;;;;;;2065045;28;20497;-90
2022/05/14 00:53:12;;;;;;;5.32;1.83;;;12.80;76.00;;;;;;2067879;28;20022;-84
2022/05/14 00:54:38;;;;;;;4.65;1.50;;;12.80;76.10;;;;;;2072900;28;20033;-90
2022/05/14 00:56:02;;;;;;;3.25;1.60;;;12.80;76.20;;;;;;2074892;28;20041;-90
2022/05/14 00:57:27;;;;;;;4.80;2.00;;;12.80;76.30;;;;;;2074710;28;20030;-90
2022/05/14 00:58:57;;;;;;;4.95;1.60;;;12.80;76.30;;;;;;2066157;28;20121;-89
2022/05/14 01:00:21;;;;;;;3.22;1.42;;;12.80;76.40;;;;;;2068428;28;20112;-89
2022/05/14 01:01:42;;;;;;;4.45;1.20;;;12.70;76.30;;;;;;2080793;28;20027;-87
2022/05/14 01:03:02;;;;;;;3.05;1.40;;;12.70;76.30;;;;;;2073515;28;20505;-90
2022/05/14 01:04:23;;;;;;;3.72;1.15;;;12.70;76.40;;;;;;2071273;28;20124;-90
2022/05/14 01:05:42;;;;;;;4.78;1.65;;;12.70;76.40;;;;;;2063319;28;20042;-90
2022/05/14 01:07:15;;;;;;;5.05;1.48;;;12.70;76.40;;;;;;2062528;28;20042;-90
2022/05/14 01:08:36;;;;;;;4.15;1.20;;;12.70;76.40;;;;;;2063282;28;20030;-90
2022/05/14 01:10:07;;;;;;;3.33;1.40;;;12.70;76.40;;;;;;2067923;28;20049;-90
2022/05/14 01:11:31;;;;;;;3.67;1.40;;;12.70;76.40;;;;;;2076197;28;20038;-91
2022/05/14 01:12:57;;;;;;;3.45;1.30;;;12.70;76.50;;;;;;2075309;28;20034;-91
2022/05/14 01:14:16;;;;;;;4.72;1.35;;;12.70;76.40;;;;;;2074854;28;20046;-91
2022/05/14 01:15:45;;;;;;;4.68;1.30;;;12.70;76.40;;;;;;2074751;28;20050;-90
2022/05/14 01:17:04;;;;;;;3.95;1.63;;;12.70;76.40;;;;;;2072729;28;20070;-90
2022/05/14 01:18:27;;;;;;;2.60;1.17;;;12.70;76.30;;;;;;2074137;28;20041;-91
2022/05/14 01:19:46;;;;;;;2.75;1.13;;;12.70;76.30;;;;;;2065268;28;20050;-90
2022/05/14 01:21:38;;;;;;;3.10;1.10;;;12.70;76.30;;;;;;2065385;28;20035;-91
2022/05/14 01:23:19;;;;;;;3.20;1.30;;;12.70;76.20;;;;;;2064629;28;20038;-91
2022/05/14 01:26:36;;;;;;;3.10;1.10;;;12.70;76.10;;;;;;2074644;28;20045;-90
2022/05/14 01:27:55;;;;;;;2.53;1.02;;;12.70;76.10;;;;;;2055314;28;20039;-90
2022/05/14 01:29:19;;;;;;;3.47;1.10;;;12.70;76.10;;;;;;2051837;28;20517;-90
2022/05/14 01:31:05;;;;;;;2.75;1.15;;;12.70;76.10;;;;;;2069663;28;20046;-90
2022/05/14 01:32:24;;;;;;;3.50;1.20;;;12.70;76.10;;;;;;2073823;28;20049;-90
2022/05/14 01:33:43;;;;;;;3.10;1.17;;;12.70;76.00;;;;;;2063255;28;20448;-91
2022/05/14 01:35:04;;;;;;;4.07;1.45;;;12.70;76.00;;;;;;2055514;28;20046;-91
2022/05/14 01:36:23;;;;;;;2.45;1.10;;;12.80;76.10;;;;;;2062463;28;20038;-90
2022/05/14 01:37:44;;;;;;;4.38;1.23;;;12.70;76.00;;;;;;2062571;28;20054;-91
2022/05/14 01:39:05;;;;;;;3.55;1.23;;;12.80;76.10;;;;;;2047094;29;20040;-90
2022/05/14 01:40:24;;;;;;;2.53;1.10;;;12.80;76.10;;;;;;2061612;28;20042;-91
2022/05/14 01:41:43;;;;;;;6.43;1.30;;;12.80;76.00;;;;;;2074185;28;20042;-90
2022/05/14 01:43:03;;;;;;;2.95;1.20;;;12.80;76.00;;;;;;2074088;28;20050;-91
2022/05/14 01:44:23;;;;;;;3.28;1.10;;;12.80;76.10;;;;;;2074062;28;20042;-90
2022/05/14 01:45:42;;;;;;;4.50;1.20;;;12.80;76.20;;;;;;2074586;28;20030;-90
2022/05/14 01:47:01;;;;;;;4.03;0.95;;;12.80;76.20;;;;;;2064702;28;20034;-91
2022/05/14 01:48:21;;;;;;;3.92;1.17;;;12.80;76.20;;;;;;2065643;28;20042;-90
2022/05/14 01:49:40;;;;;;;4.97;1.30;;;12.80;76.30;;;;;;2069130;28;20026;-90
2022/05/14 01:50:59;;;;;;;5.63;1.40;;;12.80;76.30;;;;;;2065523;28;20463;-91
2022/05/14 01:52:18;;;;;;;5.18;1.33;;;12.80;76.30;;;;;;2054664;28;20521;-91
2022/05/14 01:53:38;;;;;;;2.83;1.05;;;12.80;76.40;;;;;;2059494;28;20046;-90
2022/05/14 01:54:57;;;;;;;3.70;1.23;;;12.80;76.40;;;;;;2066888;28;20125;-90
2022/05/14 01:56:16;;;;;;;3.17;1.15;;;12.80;76.40;;;;;;2058251;28;20069;-90
2022/05/14 01:57:35;;;;;;;3.65;1.30;;;12.80;76.40;;;;;;2069466;28;20037;-90
2022/05/14 01:58:54;;;;;;;2.58;1.15;;;12.80;76.50;;;;;;2074215;28;20038;-90
2022/05/14 02:00:16;;;;;;;4.72;1.33;;;12.80;76.50;;;;;;2074011;28;20045;-91
2022/05/14 02:01:37;;;;;;;4.68;1.30;;;12.80;76.50;;;;;;2066836;28;20593;-90
2022/05/14 02:02:56;;;;;;;2.25;1.10;;;12.80;76.50;;;;;;2069726;28;20476;-90
2022/05/14 02:04:16;;;;;;;4.18;1.30;;;12.80;76.50;;;;;;2057385;28;20046;-91
2022/05/14 02:05:35;;;;;;;2.60;1.20;;;12.80;76.60;;;;;;2050806;28;20323;-91
2022/05/14 02:06:55;;;;;;;4.57;1.35;;;12.80;76.70;;;;;;2055491;28;20038;-91
2022/05/14 02:08:14;;;;;;;3.50;1.30;;;12.80;77.30;;;;;;2067775;28;20066;-91
2022/05/14 02:09:34;;;;;;;3.60;1.10;;;12.80;76.80;;;;;;2057850;28;20035;-91
2022/05/14 02:10:53;;;;;;;2.25;1.05;;;12.70;76.80;;;;;;2073334;28;20042;-90
2022/05/14 02:12:12;;;;;;;3.65;1.10;;;12.70;76.90;;;;;;2062843;28;20042;-90
2022/05/14 02:13:31;;;;;;;4.38;1.20;;;12.70;77.00;;;;;;2071130;28;20073;-91
2022/05/14 02:14:51;;;;;;;4.85;1.45;;;12.60;77.00;;;;;;2058488;28;20046;-90
2022/05/14 02:16:10;;;;;;;5.07;1.42;;;12.70;77.20;;;;;;2070343;28;20033;-91
2022/05/14 02:17:30;;;;;;;5.72;1.30;;;12.60;77.10;;;;;;2065743;28;20129;-90
2022/05/14 02:18:49;;;;;;;3.65;1.10;;;12.60;77.20;;;;;;2063186;28;20042;-90
2022/05/14 02:20:08;;;;;;;3.05;1.20;;;12.60;77.30;;;;;;2072005;28;20846;-89
2022/05/14 02:21:28;;;;;;;2.75;1.30;;;12.60;77.40;;;;;;2058073;28;20070;-90
2022/05/14 02:22:47;;;;;;;4.72;1.35;;;12.50;77.90;;;;;;2070018;28;20037;-90
2022/05/14 02:24:06;;;;;;;3.20;1.20;;;12.50;77.40;;;;;;2064540;28;20078;-91
2022/05/14 02:25:26;;;;;;;2.38;1.10;;;12.50;77.40;;;;;;2061722;28;20030;-90
2022/05/14 02:26:45;;;;;;;4.15;1.42;;;12.50;77.50;;;;;;2052923;28;20059;-90
2022/05/14 02:28:05;;;;;;;3.30;1.20;;;12.50;77.70;;;;;;2067424;28;20125;-90
2022/05/14 02:29:24;;;;;;;3.85;1.40;;;12.40;77.70;;;;;;2058334;28;20031;-91
2022/05/14 02:30:44;;;;;;;2.72;1.17;;;12.40;77.80;;;;;;2060638;28;20046;-91
2022/05/14 02:32:03;;;;;;;4.25;1.30;;;12.40;77.80;;;;;;2081284;28;20082;-87
2022/05/14 02:33:23;;;;;;;4.10;1.40;;;12.40;77.90;;;;;;2080345;28;20022;-83
2022/05/14 02:34:42;;;;;;;3.20;1.33;;;12.30;77.90;;;;;;2043224;29;20433;-90
2022/05/14 02:36:03;;;;;;;5.20;1.77;;;12.30;78.00;;;;;;2062909;28;20042;-90
2022/05/14 02:37:25;;;;;;;4.75;1.38;;;12.30;78.00;;;;;;2077750;28;20022;-90
2022/05/14 02:38:44;;;;;;;2.08;1.30;;;12.30;78.00;;;;;;2066017;28;20416;-91
2022/05/14 02:40:04;;;;;;;3.60;1.40;;;12.30;78.10;;;;;;2072331;28;20067;-90
2022/05/14 02:41:23;;;;;;;3.60;1.23;;;12.30;78.20;;;;;;2082845;28;20128;-90
2022/05/14 02:42:42;;;;;;;3.88;1.50;;;12.20;78.20;;;;;;2082251;28;20045;-91
2022/05/14 02:44:02;;;;;;;4.75;1.50;;;12.20;78.20;;;;;;2089526;28;20022;-85
2022/05/14 02:45:22;;;;;;;4.45;1.30;;;12.20;78.30;;;;;;2092377;28;20049;-89
2022/05/14 02:46:41;;;;;;;3.47;1.38;;;12.20;78.30;;;;;;2073006;28;20030;-91
2022/05/14 02:48:00;;;;;;;2.38;1.20;;;12.20;78.40;;;;;;2076249;28;20081;-91
2022/05/14 02:49:19;;;;;;;4.32;1.42;;;12.20;78.30;;;;;;2073852;28;20458;-90
2022/05/14 02:50:39;;;;;;;5.43;1.30;;;12.20;78.40;;;;;;2078959;28;20034;-89
2022/05/14 02:51:58;;;;;;;3.67;1.20;;;12.20;78.40;;;;;;2081428;28;20037;-90
2022/05/14 02:53:18;;;;;;;4.15;1.27;;;12.20;78.40;;;;;;2064318;28;20038;-90
2022/05/14 02:54:38;;;;;;;4.85;1.52;;;12.20;78.40;;;;;;2069541;28;20037;-90
2022/05/14 02:55:57;;;;;;;3.20;1.38;;;12.20;78.50;;;;;;2068569;28;20041;-90
2022/05/14 02:57:17;;;;;;;3.75;1.42;;;12.20;78.50;;;;;;2066947;28;20480;-91
2022/05/14 03:00:18;;;;;;;3.42;1.30;;;12.10;78.50;;;;;;2065143;28;20054;-90
2022/05/14 03:01:47;;;;;;;4.20;1.40;;;12.10;78.50;;;;;;2067943;28;20049;-91
2022/05/14 03:03:06;;;;;;;4.90;1.30;;;12.10;78.50;;;;;;2079630;28;20034;-90
2022/05/14 03:04:29;;;;;;;4.47;1.50;;;12.10;79.20;;;;;;2056561;28;20071;-91
2022/05/14 03:05:48;;;;;;;3.38;1.13;;;12.10;78.60;;;;;;2065809;28;20058;-91
2022/05/14 03:07:10;;;;;;;3.38;1.45;;;12.00;78.60;;;;;;2065516;28;20541;-90
2022/05/14 03:08:30;;;;;;;2.72;1.20;;;12.10;78.80;;;;;;2058823;28;20058;-90
2022/05/14 03:09:49;;;;;;;4.07;1.33;;;12.00;78.80;;;;;;2065389;28;20117;-90
2022/05/14 03:11:08;;;;;;;2.97;1.25;;;12.10;78.90;;;;;;2076288;28;20132;-90
2022/05/14 03:12:27;;;;;;;4.72;1.40;;;12.00;78.90;;;;;;2073488;28;20062;-91
2022/05/14 03:13:48;;;;;;;2.92;1.42;;;12.00;79.00;;;;;;2078767;28;20041;-91
2022/05/14 03:15:09;;;;;;;3.30;1.33;;;11.90;79.00;;;;;;2072147;28;20030;-89
2022/05/14 03:16:28;;;;;;;3.05;1.40;;;11.90;79.00;;;;;;2078980;28;20033;-90
2022/05/14 03:17:47;;;;;;;3.05;1.40;;;11.90;79.10;;;;;;2073253;28;20070;-90
2022/05/14 03:19:07;;;;;;;3.50;1.17;;;11.90;79.20;;;;;;2078413;28;20014;-89
2022/05/14 03:20:27;;;;;;;2.42;1.30;;;11.90;79.20;;;;;;2079643;28;20050;-90
2022/05/14 03:21:46;;;;;;;2.60;1.40;;;11.90;79.20;;;;;;2073312;28;20524;-90
2022/05/14 03:23:05;;;;;;;4.60;1.35;;;11.80;79.20;;;;;;2061916;28;20062;-90
2022/05/14 03:24:25;;;;;;;2.85;1.20;;;11.80;79.30;;;;;;2075792;28;20042;-91
2022/05/14 03:25:44;;;;;;;4.28;1.35;;;11.80;80.00;;;;;;2072478;28;20116;-90
2022/05/14 03:27:05;;;;;;;4.45;1.38;;;11.80;79.50;;;;;;2076546;28;20034;-91
2022/05/14 03:28:25;;;;;;;4.53;1.50;;;11.80;79.50;;;;;;2065217;28;20026;-91
2022/05/14 03:29:44;;;;;;;2.20;1.13;;;11.70;79.60;;;;;;2069108;28;20062;-90
2022/05/14 03:31:03;;;;;;;2.53;1.20;;;11.70;79.60;;;;;;2068140;28;20045;-90
2022/05/14 03:32:24;;;;;;;3.10;1.50;;;11.70;79.60;;;;;;2062230;28;20034;-90
2022/05/14 03:33:43;;;;;;;3.30;1.30;;;11.70;79.60;;;;;;2057494;28;20051;-90
2022/05/14 03:35:05;;;;;;;3.30;1.30;;;11.70;79.60;;;;;;2077517;28;20038;-91
2022/05/14 03:36:26;;;;;;;4.10;1.50;;;11.70;79.60;;;;;;2064609;28;20054;-90
2022/05/14 03:37:45;;;;;;;3.33;1.30;;;11.80;79.60;;;;;;2070911;28;20477;-90
2022/05/14 03:39:04;;;;;;;3.42;1.23;;;11.70;79.60;;;;;;2058355;28;20573;-90
2022/05/14 03:40:24;;;;;;;2.75;1.38;;;11.80;79.60;;;;;;2073156;28;20076;-90
2022/05/14 03:41:44;;;;;;;3.03;1.23;;;11.70;79.60;;;;;;2062398;28;20058;-91
2022/05/14 03:43:03;;;;;;;3.13;1.30;;;11.70;79.60;;;;;;2057971;28;20533;-90
2022/05/14 03:44:22;;;;;;;2.22;1.30;;;11.70;79.60;;;;;;2038365;29;20051;-91
2022/05/14 03:45:41;;;;;;;3.92;1.33;;;11.70;79.70;;;;;;2049836;28;20113;-90
2022/05/14 03:47:01;;;;;;;3.20;1.23;;;11.70;79.70;;;;;;2061513;28;20042;-90
2022/05/14 03:48:20;;;;;;;3.00;1.27;;;11.70;79.80;;;;;;2055748;28;20030;-90
2022/05/14 03:49:40;;;;;;;3.50;1.52;;;11.60;79.80;;;;;;2058788;28;20043;-90
2022/05/14 03:50:59;;;;;;;2.88;1.33;;;11.60;79.90;;;;;;2072187;28;20058;-90
2022/05/14 03:52:19;;;;;;;4.00;1.60;;;11.60;79.90;;;;;;2074143;28;20120;-91
2022/05/14 03:53:38;;;;;;;3.38;1.40;;;11.60;80.00;;;;;;2075013;28;20038;-90
2022/05/14 03:54:57;;;;;;;3.75;1.30;;;11.60;80.00;;;;;;2058546;28;20039;-90
2022/05/14 03:56:16;;;;;;;3.53;1.60;;;11.60;80.70;;;;;;2068490;28;20455;-90
2022/05/14 03:57:36;;;;;;;3.03;1.33;;;11.60;80.00;;;;;;2074190;28;20054;-90
2022/05/14 03:58:55;;;;;;;4.25;1.30;;;11.50;80.10;;;;;;2066810;28;20117;-90
2022/05/14 04:00:14;;;;;;;3.85;1.10;;;11.50;80.20;;;;;;2070261;28;20037;-90
2022/05/14 04:01:35;;;;;;;6.28;1.45;;;11.50;80.20;;;;;;2064366;28;20031;-90
2022/05/14 04:02:55;;;;;;;;;;;11.50;80.20;;;;;;2065790;28;20039;-90
2022/05/14 04:04:14;;;;;;;3.38;1.30;;;11.50;80.20;;;;;;2058547;28;20001;-89
2022/05/14 04:05:33;;;;;;;3.30;1.08;;;11.50;80.10;;;;;;2066205;28;20045;-90
2022/05/14 04:06:53;;;;;;;2.47;1.15;;;11.50;80.10;;;;;;2058026;28;20042;-90
2022/05/14 04:08:13;;;;;;;3.85;1.30;;;11.50;80.20;;;;;;2052158;28;20081;-91
2022/05/14 04:09:32;;;;;;;3.38;1.20;;;11.40;80.10;;;;;;2059945;28;20046;-90
2022/05/14 04:10:51;;;;;;;3.47;1.10;;;11.40;80.20;;;;;;2072090;28;20050;-90
2022/05/14 04:12:10;;;;;;;3.40;1.17;;;11.40;80.30;;;;;;2059033;28;20034;-90
2022/05/14 04:13:29;;;;;;;2.50;1.20;;;11.50;80.40;;;;;;2061153;28;20070;-91
2022/05/14 04:14:49;;;;;;;3.80;1.27;;;11.40;80.30;;;;;;2074618;28;20038;-91
2022/05/14 04:16:08;;;;;;;3.33;1.30;;;11.50;80.50;;;;;;2068832;28;20106;-85
2022/05/14 04:17:27;;;;;;;3.83;1.48;;;11.40;80.40;;;;;;2073927;28;20010;-90
2022/05/14 04:18:46;;;;;;;4.28;1.50;;;11.50;80.40;;;;;;2066344;28;20058;-90
2022/05/14 04:20:06;;;;;;;2.83;1.10;;;11.40;80.40;;;;;;2081516;28;20034;-82
2022/05/14 04:21:25;;;;;;;3.72;1.40;;;11.40;80.50;;;;;;2080339;28;20467;-91
2022/05/14 04:22:44;;;;;;;4.25;1.25;;;11.40;80.50;;;;;;2066816;28;20130;-92
2022/05/14 04:24:05;;;;;;;4.28;1.40;;;11.40;80.50;;;;;;2069518;28;20073;-90
2022/05/14 04:25:24;;;;;;;2.25;1.20;;;11.40;80.60;;;;;;2067337;28;20038;-91
2022/05/14 04:26:43;;;;;;;3.17;1.30;;;11.40;80.60;;;;;;2074128;28;20435;-90
2022/05/14 04:28:03;;;;;;;2.90;1.30;;;11.30;80.60;;;;;;2081892;28;20029;-89
2022/05/14 04:29:22;;;;;;;2.15;1.10;;;11.40;80.70;;;;;;2075790;28;20014;-83
2022/05/14 04:30:41;;;;;;;4.75;1.52;;;11.40;80.60;;;;;;2055762;28;20051;-90
2022/05/14 04:32:00;;;;;;;2.72;1.20;;;11.40;80.60;;;;;;2060160;28;20034;-91
2022/05/14 04:33:20;;;;;;;2.70;1.13;;;11.40;80.60;;;;;;2065926;28;20074;-90
2022/05/14 04:34:40;;;;;;;3.83;1.30;;;11.40;80.60;;;;;;2062605;28;20039;-90
2022/05/14 04:35:59;;;;;;;2.60;1.33;;;11.40;80.50;;;;;;2065837;28;20030;-91
2022/05/14 04:37:18;;;;;;;5.60;1.30;;;11.50;80.60;;;;;;2055496;28;20452;-91
2022/05/14 04:38:38;;;;;;;3.47;1.70;;;11.50;80.50;;;;;;2054230;28;20038;-90
2022/05/14 04:39:57;;;;;;;2.95;1.35;;;11.50;80.60;;;;;;2048701;29;20039;-91
2022/05/14 04:41:16;;;;;;;3.50;1.40;;;11.50;80.60;;;;;;2060174;28;20046;-91
2022/05/14 04:42:39;;;;;;;3.20;0.98;;;11.50;80.50;;;;;;2072345;28;20077;-90
2022/05/14 04:43:58;;;;;;;2.53;1.20;;;11.50;80.60;;;;;;2066097;28;20058;-90
2022/05/14 04:45:17;;;;;;;3.17;1.30;;;11.50;80.50;;;;;;2063388;28;20125;-90
2022/05/14 04:46:37;;;;;;;4.13;1.33;;;11.50;80.50;;;;;;2055403;28;20031;-91
2022/05/14 04:47:56;;;;;;;3.75;1.50;;;11.50;80.60;;;;;;2052554;28;20526;-90
2022/05/14 04:49:16;;;;;;;4.22;1.50;;;11.50;80.60;;;;;;2059430;28;20050;-89
2022/05/14 04:50:35;;;;;;;4.55;1.40;;;11.50;80.60;;;;;;2064369;28;20129;-90
2022/05/14 04:51:54;;;;;;;2.88;1.45;;;11.50;80.70;;;;;;2063085;28;20038;-91
2022/05/14 04:53:14;;;;;;;3.28;1.30;;;11.50;80.70;;;;;;2064357;28;20493;-91
2022/05/14 04:54:33;;;;;;;2.35;1.25;;;11.50;80.70;;;;;;2066600;28;20129;-90
2022/05/14 04:55:53;;;;;;;2.90;1.40;;;11.50;80.70;;;;;;2072950;28;20033;-90
2022/05/14 04:57:12;;;;;;;2.85;1.30;;;11.60;80.70;;;;;;2072848;28;20065;-90
2022/05/14 04:58:32;;;;;;;3.22;1.40;;;11.60;80.60;;;;;;2057454;28;20521;-91
2022/05/14 04:59:52;;;;;;;4.05;1.30;;;11.60;80.60;;;;;;2059600;28;20047;-90
2022/05/14 05:01:11;;;;;;;;;;;11.70;80.60;;;;;;2071642;28;20049;-91
2022/05/14 05:04:09;;;;;;;3.80;1.42;;;11.70;80.30;;;;;;2067372;28;20552;-90
2022/05/14 05:05:29;;;;;;;3.00;1.30;;;11.80;80.20;;;;;;2058648;28;20042;-90
2022/05/14 05:06:48;;;;;;;2.43;1.40;;;11.80;80.20;;;;;;2063407;28;20038;-90
2022/05/14 05:08:07;;;;;;;3.85;1.50;;;11.80;80.10;;;;;;2058233;28;20270;-91
2022/05/14 05:09:27;;;;;;;3.70;1.52;;;11.90;80.70;;;;;;2066130;28;20516;-91
2022/05/14 05:10:47;;;;;;;4.82;1.40;;;11.90;80.00;;;;;;2049076;29;20520;-91
2022/05/14 05:12:07;;;;;;;2.65;1.33;;;11.90;80.00;;;;;;2052668;28;20422;-91
2022/05/14 05:13:28;;;;;;;6.05;1.70;;;12.00;79.90;;;;;;2055971;28;20448;-90
2022/05/14 05:14:47;;;;;;;3.33;1.38;;;12.10;80.60;;;;;;2063783;28;20035;-90
2022/05/14 05:16:07;;;;;;;2.45;1.30;;;12.10;79.80;;;;;;2047964;29;20043;-90
2022/05/14 05:17:27;;;;;;;3.92;1.40;;;12.20;79.80;;;;;;2067924;28;20527;-91
2022/05/14 05:18:46;;;;;;;4.65;1.67;;;12.20;79.70;;;;;;2057992;28;20047;-91
2022/05/14 05:20:07;;;;;;;3.80;1.60;;;12.20;79.60;;;;;;2067244;28;20128;-90
2022/05/14 05:21:26;;;;;;;3.97;1.60;;;12.30;79.60;;;;;;2071987;28;20026;-91
2022/05/14 05:22:47;;;;;;;3.55;1.55;;;12.30;79.50;;;;;;2074747;28;20508;-91
2022/05/14 05:24:06;;;;;;;4.95;1.80;;;12.40;79.40;;;;;;2065149;28;20046;-91
2022/05/14 05:25:26;;;;;;;3.58;1.65;;;12.40;79.30;;;;;;2054768;28;20046;-90
2022/05/14 05:26:45;;;;;;;3.25;1.42;;;12.40;79.20;;;;;;2053840;28;20042;-90
2022/05/14 05:28:04;;;;;;;4.68;1.85;;;12.50;79.20;;;;;;2059712;28;20078;-90
2022/05/14 05:29:24;;;;;;;4.35;1.90;;;12.50;79.10;;;;;;2063489;28;20098;-91
2022/05/14 05:30:44;;;;;;;3.78;1.52;;;12.60;79.10;;;;;;2058651;28;20050;-90
2022/05/14 05:32:04;;;;;;;4.72;1.50;;;12.60;79.00;;;;;;2070355;28;20396;-92
2022/05/14 05:33:25;;;;;;;3.25;1.50;;;12.60;79.00;;;;;;2073703;28;20038;-90
2022/05/14 05:34:43;;;;;;;4.35;1.88;;;12.70;78.90;;;;;;2074555;28;20029;-91
2022/05/14 05:36:03;;;;;;;5.40;1.45;;;12.70;78.80;;;;;;2074043;28;20034;-91
2022/05/14 05:37:22;;;;;;;3.70;1.40;;;12.80;78.80;;;;;;2058982;28;20039;-91
2022/05/14 05:38:41;;;;;;;3.88;1.60;;;12.80;78.80;;;;;;2067735;28;20046;-91
2022/05/14 05:40:01;;;;;;;3.83;1.73;;;12.90;78.80;;;;;;2074124;28;20038;-90
2022/05/14 05:41:21;;;;;;;3.78;1.40;;;12.90;78.60;;;;;;2072324;28;20046;-90
2022/05/14 05:42:41;;;;;;;5.30;1.90;;;12.90;78.50;;;;;;2053484;28;20050;-91
2022/05/14 05:44:01;;;;;;;4.35;1.70;;;13.00;78.40;;;;;;2067265;28;20042;-90
2022/05/14 05:45:20;;;;;;;5.22;1.70;;;13.10;78.30;;;;;;2057403;28;20038;-90
2022/05/14 05:46:39;;;;;;;3.05;1.70;;;13.20;78.20;;;;;;2068201;28;20065;-91
2022/05/14 05:47:59;;;;;;;4.28;1.77;;;13.20;78.00;;;;;;2057498;28;20031;-90
2022/05/14 05:49:18;;;;;;;4.15;1.88;;;13.30;77.90;;;;;;2058046;28;20042;-90
2022/05/14 05:50:38;;;;;;;4.60;1.55;;;13.30;77.80;;;;;;2061344;28;20054;-90
2022/05/14 05:51:57;;;;;;;4.40;1.85;;;13.40;77.90;;;;;;2062143;28;20113;-90
2022/05/14 05:53:17;;;;;;;3.45;1.70;;;13.40;77.80;;;;;;2057669;28;20492;-90
2022/05/14 05:57:54;;;;;;;3.92;1.45;;;13.60;77.60;;;;;;2074444;28;20393;-90
2022/05/14 05:59:15;;;;;;;4.60;1.75;;;13.70;77.40;;;;;;2066412;28;20513;-87
2022/05/14 06:00:36;;;;;;;3.30;1.70;;;13.80;77.20;;;;;;2065810;28;20019;-90
2022/05/14 06:01:55;;;;;;;5.03;1.70;;;13.90;77.00;;;;;;2062759;28;20039;-90
2022/05/14 06:03:15;;;;;;;3.50;1.70;;;13.90;76.90;;;;;;2055403;28;20109;-90
2022/05/14 06:04:35;;;;;;;3.97;1.65;;;14.00;76.80;;;;;;2067094;28;20034;-89
2022/05/14 06:05:54;;;;;;;5.05;1.70;;;14.10;77.40;;;;;;2068742;28;20030;-91
2022/05/14 06:07:14;;;;;;;4.38;1.67;;;14.10;76.70;;;;;;2065925;28;20117;-90
2022/05/14 06:08:33;;;;;;;4.03;1.60;;;14.10;76.60;;;;;;2061288;28;20046;-90
2022/05/14 06:09:52;;;;;;;4.78;1.83;;;14.10;77.20;;;;;;2052377;28;20047;-91
2022/05/14 06:11:12;;;;;;;4.18;1.80;;;14.10;76.70;;;;;;2062122;28;20046;-91
2022/05/14 06:12:31;;;;;;;3.63;1.85;;;14.10;76.80;;;;;;2065104;28;20019;-80
2022/05/14 06:13:51;;;;;;;3.58;1.73;;;14.10;76.90;;;;;;2072521;28;20026;-89
2022/05/14 06:15:13;;;;;;;3.40;1.80;;;14.10;77.10;;;;;;2065429;28;20121;-90
2022/05/14 06:16:32;;;;;;;6.38;2.03;;;14.00;77.10;;;;;;2059779;28;20478;-90
2022/05/14 06:17:51;;;;;;;4.57;1.80;;;14.00;77.20;;;;;;2062340;28;20035;-90
2022/05/14 06:19:12;;;;;;;4.03;2.20;;;14.00;77.40;;;;;;2057249;28;20043;-90
2022/05/14 06:20:32;;;;;;;5.07;1.92;;;13.90;77.60;;;;;;2058551;28;20047;-89
2022/05/14 06:21:51;;;;;;;6.07;2.03;;;14.00;77.70;;;;;;2062894;28;20556;-90
2022/05/14 06:23:10;;;;;;;4.68;2.03;;;13.90;77.70;;;;;;2065471;28;20083;-91
2022/05/14 06:24:30;;;;;;;6.43;2.42;;;14.00;77.70;;;;;;2048672;28;20051;-91
2022/05/14 06:25:48;;;;;;;5.75;2.40;;;14.10;77.70;;;;;;2051033;28;20042;-90
2022/05/14 06:27:08;;;;;;;5.10;2.55;;;14.20;77.60;;;;;;2046150;29;20047;-90
2022/05/14 06:28:27;;;;;;;5.22;2.42;;;14.30;77.50;;;;;;2059272;28;20054;-89
2022/05/14 06:29:46;;;;;;;5.50;2.28;;;14.30;77.40;;;;;;2066289;28;20050;-88
2022/05/14 06:31:06;;;;;;;3.90;2.10;;;14.40;77.40;;;;;;2072111;28;20041;-91
2022/05/14 06:32:25;;;;;;;5.50;2.15;;;14.40;77.40;;;;;;2065090;28;20034;-89
2022/05/14 06:33:45;;;;;;;5.57;2.35;;;14.40;77.30;;;;;;2070118;28;20034;-90
2022/05/14 06:35:06;;;;;;;5.35;2.42;;;14.50;77.20;;;;;;2073028;28;20105;-90
2022/05/14 06:36:26;;;;;;;5.88;2.30;;;14.60;77.20;;;;;;2072040;28;20042;-90
2022/05/14 06:37:45;;;;;;;5.88;2.10;;;14.60;77.20;;;;;;2069160;28;20069;-90
2022/05/14 06:39:05;;;;;;;4.93;2.42;;;14.60;77.20;;;;;;2064993;28;20043;-90
2022/05/14 06:40:24;;;;;;;5.60;2.33;;;14.60;77.30;;;;;;2013743;28;1289656;-90
2022/05/14 06:41:44;;;;;;;5.03;2.03;;;14.60;77.40;;;;;;2071620;28;20050;-90
2022/05/14 06:43:03;;;;;;;5.57;2.42;;;14.60;78.00;;;;;;2068434;28;20038;-90
2022/05/14 06:44:23;;;;;;;6.53;2.35;;;14.60;77.50;;;;;;2067995;28;20042;-91
2022/05/14 06:45:43;;;;;;;6.28;2.40;;;14.70;77.60;;;;;;2070746;28;20041;-91
2022/05/14 06:47:03;;;;;;;5.70;2.40;;;14.80;77.60;;;;;;2069600;28;20035;-91
2022/05/14 06:48:22;;;;;;;4.45;2.20;;;14.80;77.50;;;;;;2065136;28;20030;-91
2022/05/14 06:49:41;;;;;;;6.93;2.42;;;14.90;77.40;;;;;;2060907;28;20038;-90
2022/05/14 06:51:04;;;;;;;6.95;2.47;;;15.00;77.30;;;;;;2068998;28;20082;-92
2022/05/14 06:52:24;;;;;;;5.10;2.28;;;15.10;77.10;;;;;;2076490;28;20046;-91
2022/05/14 06:53:43;;;;;;;8.35;2.75;;;15.20;77.10;;;;;;2073457;28;20030;-92
2022/05/14 06:55:03;;;;;;;6.68;2.30;;;15.20;76.90;;;;;;2070339;28;20157;-92
2022/05/14 06:56:23;;;;;;;5.85;2.78;;;15.30;76.80;;;;;;2065596;28;20074;-92
2022/05/14 06:57:43;;;;;;;7.38;2.42;;;15.30;76.80;;;;;;2062448;28;20042;-92
2022/05/14 06:59:03;;;;;;;6.35;2.10;;;15.40;76.70;;;;;;2062358;28;20038;-92
2022/05/14 07:00:23;;;;;;;5.38;2.42;;;15.40;76.70;;;;;;2062181;28;20042;-91
2022/05/14 07:01:46;;;;;;;5.72;2.20;;;15.50;76.60;;;;;;2062431;28;20517;-92
2022/05/14 07:06:38;;;;;;;4.85;2.00;;;15.70;76.50;;;;;;2074060;28;20492;-91
2022/05/14 07:07:58;;;;;;;6.03;2.55;;;15.80;76.30;;;;;;2073185;28;20512;-90
2022/05/14 07:09:23;;;;;;;5.65;2.40;;;15.90;76.30;;;;;;2074228;28;20046;-92
2022/05/14 07:10:43;;;;;;;6.50;2.50;;;15.90;76.20;;;;;;2065889;28;20444;-91
2022/05/14 07:12:08;;;;;;;5.25;2.40;;;16.00;76.10;;;;;;2048701;28;20067;-91
2022/05/14 07:13:27;;;;;;;5.32;2.42;;;16.10;76.00;;;;;;2066705;28;20525;-90